Terminal Aerodrome Forecast
Issued by NWS

Home | Current Version | Previous Version | Text Only | Print | Product List | Glossary On
Versions: 1 2 3 4 5 6 7 8 9 10 11 12 13 14 15 16 17
792
FTUS43 KDVN 261134
TAFCID
TAF
KCID 261134Z 2612/2712 30008KT P6SM VCSH OVC070
     FM261300 29008KT P6SM BKN070
     FM261700 28009KT P6SM VCSH SCT050 BKN070
     FM270000 33005KT P6SM FEW070=

USA.gov is the U.S. government's official web portal to all federal, state and local government web resources and services.